This is the latest recevied weather packets stored in our database for station/object UB2FAY-13. If no packets are shown the sender has not sent any weather packets the latest 10 day(s).
| Time | Temp. | Humidity | Pressure | Rain* | Wind** | Luminosity | Snow |
|---|---|---|---|---|---|---|---|
| 1777514293 | 5.56° C | 77% | 1030.8 hPa | 0 mm | - | - | - |
| 1777514220 | 5.56° C | 77% | 1030.8 hPa | 0 mm | - | - | - |
| 1777513620 | 3.89° C | 75% | 1030.8 hPa | 0 mm | - | - | - |
| 1777513020 | 5° C | 76% | 1030.8 hPa | 0 mm | - | - | - |
| 1777512420 | 5.56° C | 77% | 1030.7 hPa | 0 mm | - | - | - |
| 1777511820 | 5° C | 77% | 1030.7 hPa | 0 mm | - | - | - |
| 1777511220 | 5° C | 77% | 1030.7 hPa | 0 mm | - | - | - |
| 1777509420 | 5° C | 77% | 1030.7 hPa | 0 mm | - | - | - |
| 1777508820 | 5° C | 77% | 1030.8 hPa | 0 mm | - | - | - |
| 1777505820 | 2.78° C | 74% | 1030.9 hPa | 0 mm | - | - | - |
| 1777504620 | 2.78° C | 73% | 1031 hPa | 0 mm | - | - | - |
| 1777501020 | 3.33° C | 71% | 1030.5 hPa | 0 mm | - | - | - |
| 1777500420 | 3.89° C | 71% | 1030.5 hPa | 0 mm | - | - | - |
| 1777498620 | 5.56° C | 76% | 1030.2 hPa | 0 mm | - | - | - |
| 1777496820 | 3.89° C | 72% | 1030 hPa | 0 mm | - | - | - |
| 1777496220 | 3.89° C | 72% | 1029.7 hPa | 0 mm | - | - | - |
| 1777495620 | 5° C | 74% | 1029.6 hPa | 0 mm | - | - | - |
| 1777495020 | 5.56° C | 75% | 1029.6 hPa | 0 mm | - | - | - |
| 1777494420 | 5° C | 74% | 1029.6 hPa | 0 mm | - | - | - |
| 1777493820 | 4.44° C | 72% | 1029.6 hPa | 0 mm | - | - | - |
| 1777492020 | 2.78° C | 66% | 1029.7 hPa | 0 mm | - | - | - |
| 1777491420 | 2.78° C | 65% | 1029.8 hPa | 0 mm | - | - | - |
| 1777489620 | 2.78° C | 63% | 1029.7 hPa | 0 mm | - | - | - |
| 1777424222 | 1.11° C | 75% | 1026.3 hPa | 0 mm | - | - | - |
| 1777415822 | 1.11° C | 75% | 1026.6 hPa | 0 mm | - | - | - |
* Rain latest hour (hover to see other rain measurements)
** Current wind speed in m/s (hover to see current wind gust speed)